createdAt,value
2015-12-22T00:00:23.576Z,1009.2
2015-12-22T00:01:23.282Z,1009.2
2015-12-22T00:02:23.238Z,1009.2
2015-12-22T00:03:23.193Z,1009.1
2015-12-22T00:04:23.118Z,1009.2
2015-12-22T00:05:23.074Z,1009.2
2015-12-22T00:06:23.014Z,1009.2
2015-12-22T00:07:22.970Z,1009
2015-12-22T00:08:22.910Z,1009.2
2015-12-22T00:09:23.084Z,1009.1
2015-12-22T00:10:22.807Z,1009.2
2015-12-22T00:11:22.762Z,1009.1
2015-12-22T00:12:22.687Z,1009.2
2015-12-22T00:13:22.862Z,1009.2
2015-12-22T00:14:22.583Z,1009.1
2015-12-22T00:15:22.523Z,1009.1
2015-12-22T00:16:22.464Z,1009
2015-12-22T00:17:22.403Z,1009.1
2015-12-22T00:18:22.359Z,1009.2
2015-12-22T00:19:21.550Z,1009.1
2015-12-22T00:20:22.256Z,1009.1
2015-12-22T00:21:22.196Z,1009.1
2015-12-22T00:22:22.137Z,1009.1
2015-12-22T00:23:22.092Z,1009.1
2015-12-22T00:24:22.033Z,1009.1
2015-12-22T00:25:21.988Z,1009.2
2015-12-22T00:26:21.929Z,1009.2
2015-12-22T00:27:21.869Z,1009.3
2015-12-22T00:28:21.824Z,1009.1
2015-12-22T00:29:21.764Z,1009.2
2015-12-22T00:30:21.721Z,1009.3
2015-12-22T00:31:21.880Z,1009.1
2015-12-22T00:32:21.850Z,1009.3
2015-12-22T00:33:21.554Z,1009.2
2015-12-22T00:34:21.511Z,1009.3
2015-12-22T00:35:21.450Z,1009.2
2015-12-22T00:36:21.391Z,1009.4
2015-12-22T00:37:21.331Z,1009.4
2015-12-22T00:38:21.286Z,1009.4
2015-12-22T00:39:21.242Z,1009.3
2015-12-22T00:40:21.183Z,1009.4
2015-12-22T00:41:21.108Z,1009.4
2015-12-22T00:42:21.267Z,1009.4
2015-12-22T00:43:21.019Z,1009.5
2015-12-22T00:44:20.975Z,1009.2
2015-12-22T00:45:21.103Z,1009.2
2015-12-22T00:46:20.856Z,1009.4
2015-12-22T00:47:20.797Z,1009.3
2015-12-22T00:48:20.752Z,1009.2
2015-12-22T00:49:20.708Z,1009.2
2015-12-22T00:50:20.632Z,1009.2
2015-12-22T00:51:20.808Z,1009.3
2015-12-22T00:52:20.528Z,1009.3
2015-12-22T00:53:20.485Z,1009.2
2015-12-22T00:54:20.425Z,1009.2
2015-12-22T00:55:20.569Z,1009.4
2015-12-22T00:56:20.321Z,1009.3
2015-12-22T00:57:20.261Z,1009.4
2015-12-22T00:58:20.233Z,1009.4
2015-12-22T00:59:20.158Z,1009.3
2015-12-22T01:00:20.097Z,1009.3
2015-12-22T01:01:20.069Z,1009.2
2015-12-22T01:02:20.025Z,1009.2
2015-12-22T01:03:19.950Z,1009.3
2015-12-22T01:04:19.890Z,1009.3
2015-12-22T01:05:19.080Z,1009.5
2015-12-22T01:06:19.786Z,1009.3
2015-12-22T01:07:19.742Z,1009.3
2015-12-22T01:08:19.667Z,1009.4
2015-12-22T01:09:19.622Z,1009.3
2015-12-22T01:10:19.563Z,1009.4
2015-12-22T01:11:19.518Z,1009.5
2015-12-22T01:12:19.455Z,1009.3
2015-12-22T01:13:19.396Z,1009.4
2015-12-22T01:14:19.336Z,1009.5
2015-12-22T01:15:19.293Z,1009.5
2015-12-22T01:16:19.249Z,1009.5
2015-12-22T01:17:18.438Z,1009.4
2015-12-22T01:18:19.128Z,1009.5
2015-12-22T01:19:19.084Z,1009.5
2015-12-22T01:20:19.021Z,1009.7
2015-12-22T01:21:18.977Z,1009.7
2015-12-22T01:22:19.060Z,1009.7
2015-12-22T01:23:19.032Z,1009.7
2015-12-22T01:24:18.739Z,1009.7
2015-12-22T01:25:18.684Z,1009.8
2015-12-22T01:26:18.619Z,1009.9
2015-12-22T01:27:18.570Z,1009.9
2015-12-22T01:28:18.504Z,1010
2015-12-22T01:29:17.704Z,1009.9
2015-12-22T01:30:18.391Z,1010
2015-12-22T01:31:18.314Z,1010.1
2015-12-22T01:32:18.501Z,1010.1
2015-12-22T01:33:18.206Z,1009.9
2015-12-22T01:34:18.175Z,1010
2015-12-22T01:35:18.130Z,1010
2015-12-22T01:36:18.055Z,1010.2
2015-12-22T01:37:17.994Z,1010
2015-12-22T01:38:17.934Z,1010.1
2015-12-22T01:39:17.889Z,1010.2
2015-12-22T01:40:17.688Z,1010.1
2015-12-22T01:41:17.785Z,1010.1
2015-12-22T01:42:17.725Z,1010
2015-12-22T01:43:17.680Z,1010.1
2015-12-22T01:44:17.604Z,1010.2
2015-12-22T01:45:17.576Z,1010.2
2015-12-22T01:46:17.517Z,1010.1
2015-12-22T01:47:17.456Z,1010.2
2015-12-22T01:48:17.397Z,1010.2
2015-12-22T01:49:17.337Z,1010.1
2015-12-22T01:50:17.292Z,1010
2015-12-22T01:51:17.248Z,1010.2
2015-12-22T01:52:17.220Z,1010.1
2015-12-22T01:53:17.364Z,1010.2
2015-12-22T01:54:17.067Z,1010.1
2015-12-22T01:55:16.867Z,1010.1
2015-12-22T01:56:16.979Z,1010.2
2015-12-22T01:57:17.137Z,1010.4
2015-12-22T01:58:16.859Z,1010.3
2015-12-22T01:59:16.800Z,1010.3
2015-12-22T02:00:16.771Z,1010.5
2015-12-22T02:01:16.555Z,1010.3
2015-12-22T02:02:16.636Z,1010.4
2015-12-22T02:03:16.592Z,1010.4
2015-12-22T02:04:16.531Z,1010.5
2015-12-22T02:05:16.487Z,1010.4
2015-12-22T02:06:22.724Z,1010.5
2015-12-22T02:07:16.368Z,1010.4
2015-12-22T02:08:16.325Z,1010.5
2015-12-22T02:09:16.264Z,1010.5
2015-12-22T02:10:16.236Z,1010.5
2015-12-22T02:11:16.411Z,1010.6
2015-12-22T02:12:16.117Z,1010.5
2015-12-22T02:13:16.056Z,1010.4
2015-12-22T02:14:15.997Z,1010.5
2015-12-22T02:15:15.953Z,1010.5
2015-12-22T02:16:15.893Z,1010.5
2015-12-22T02:17:15.834Z,1010.5
2015-12-22T02:18:15.789Z,1010.5
2015-12-22T02:19:15.745Z,1010.7
2015-12-22T02:20:15.685Z,1010.7
2015-12-22T02:21:15.610Z,1010.7
2015-12-22T02:22:15.567Z,1010.7
2015-12-22T02:23:15.522Z,1010.7
2015-12-22T02:24:15.462Z,1010.7
2015-12-22T02:25:15.417Z,1010.8
2015-12-22T02:26:15.358Z,1010.7
2015-12-22T02:27:15.297Z,1010.7
2015-12-22T02:28:15.254Z,1010.7
2015-12-22T02:29:15.210Z,1010.6
2015-12-22T02:30:15.150Z,1010.8
2015-12-22T02:31:15.072Z,1010.8
2015-12-22T02:32:15.028Z,1010.9
2015-12-22T02:33:14.984Z,1010.9
2015-12-22T02:34:14.924Z,1010.8
2015-12-22T02:35:14.896Z,1010.8
2015-12-22T02:36:14.819Z,1010.9
2015-12-22T02:37:14.760Z,1010.9
2015-12-22T02:38:14.716Z,1010.9
2015-12-22T02:39:14.657Z,1010.9
2015-12-22T02:40:14.613Z,1011
2015-12-22T02:41:14.741Z,1010.9
2015-12-22T02:42:14.477Z,1010.8
2015-12-22T02:43:14.449Z,1010.8
2015-12-22T02:44:14.389Z,1010.9
2015-12-22T02:45:14.330Z,1010.8
2015-12-22T02:46:14.270Z,1010.8
2015-12-22T02:47:14.225Z,1010.9
2015-12-22T02:48:14.385Z,1010.7
2015-12-22T02:49:14.106Z,1010.9
2015-12-22T02:50:14.062Z,1010.9
2015-12-22T02:51:14.002Z,1010.9
2015-12-22T02:52:13.958Z,1010.8
2015-12-22T02:53:13.914Z,1010.9
2015-12-22T02:54:13.838Z,1010.9
2015-12-22T02:55:13.794Z,1010.9
2015-12-22T02:56:13.750Z,1010.9
2015-12-22T02:57:13.691Z,1011
2015-12-22T02:58:13.646Z,1011
2015-12-22T02:59:13.588Z,1010.9
2015-12-22T03:00:13.527Z,1011.1
2015-12-22T03:01:13.483Z,1011
2015-12-22T03:02:13.424Z,1011.1
2015-12-22T03:03:12.630Z,1010.9
2015-12-22T03:04:13.507Z,1011
2015-12-22T03:05:13.259Z,1011.1
2015-12-22T03:06:13.216Z,1011.1
2015-12-22T03:07:13.155Z,1011.2
2015-12-22T03:08:13.096Z,1011.3
2015-12-22T03:09:13.035Z,1011.3
2015-12-22T03:10:12.976Z,1011.2
2015-12-22T03:11:12.932Z,1011.3
2015-12-22T03:12:12.904Z,1011.3
2015-12-22T03:13:12.826Z,1011.3
2015-12-22T03:14:12.766Z,1011.3
2015-12-22T03:15:12.706Z,1011.2
2015-12-22T03:16:12.662Z,1011.3
2015-12-22T03:17:12.634Z,1011.4
2015-12-22T03:18:12.574Z,1011.3
2015-12-22T03:19:12.498Z,1011.3
2015-12-22T03:20:12.673Z,1011.3
2015-12-22T03:21:12.395Z,1011.3
2015-12-22T03:22:12.365Z,1011.2
2015-12-22T03:23:12.290Z,1011.4
2015-12-22T03:24:12.231Z,1011.4
2015-12-22T03:25:12.171Z,1011.4
2015-12-22T03:26:12.127Z,1011.4
2015-12-22T03:27:12.083Z,1011.2
2015-12-22T03:28:12.023Z,1011.3
2015-12-22T03:29:11.963Z,1011.3
2015-12-22T03:30:11.920Z,1011.4
2015-12-22T03:31:11.859Z,1011.3
2015-12-22T03:32:11.816Z,1011.5
2015-12-22T03:33:11.756Z,1011.5
2015-12-22T03:34:11.711Z,1011.6
2015-12-22T03:35:11.684Z,1011.5
2015-12-22T03:36:11.592Z,1011.5
2015-12-22T03:37:11.548Z,1011.6
2015-12-22T03:38:11.488Z,1011.5
2015-12-22T03:39:11.460Z,1011.6
2015-12-22T03:40:11.384Z,1011.6
2015-12-22T03:41:11.325Z,1011.7
2015-12-22T03:42:11.265Z,1011.7
2015-12-22T03:43:11.643Z,1011.6
2015-12-22T03:44:11.161Z,1011.6
2015-12-22T03:45:11.117Z,1011.6
2015-12-22T03:46:11.057Z,1011.7
2015-12-22T03:47:11.231Z,1011.7
2015-12-22T03:48:10.970Z,1011.7
2015-12-22T03:49:10.893Z,1011.7
2015-12-22T03:50:10.850Z,1011.6
2015-12-22T03:51:10.790Z,1011.9
2015-12-22T03:52:10.730Z,1011.7
2015-12-22T03:53:10.686Z,1011.8
2015-12-22T03:54:10.642Z,1011.8
2015-12-22T03:55:10.769Z,1011.8
2015-12-22T03:56:10.519Z,1011.7
2015-12-22T03:57:10.459Z,1011.8
2015-12-22T03:58:10.415Z,1011.7
2015-12-22T03:59:10.356Z,1011.8
2015-12-22T04:00:10.311Z,1011.7
2015-12-22T04:01:10.252Z,1011.8
2015-12-22T04:02:10.222Z,1011.8
2015-12-22T04:03:10.147Z,1012
2015-12-22T04:04:10.104Z,1011.9
2015-12-22T04:05:10.028Z,1012
2015-12-22T04:06:09.969Z,1012
2015-12-22T04:07:09.924Z,1011.9
2015-12-22T04:08:09.880Z,1012
2015-12-22T04:09:09.836Z,1012
2015-12-22T04:10:09.761Z,1012
2015-12-22T04:11:09.733Z,1011.8
2015-12-22T04:12:09.657Z,1011.9
2015-12-22T04:13:09.613Z,1012
2015-12-22T04:14:09.538Z,1012
2015-12-22T04:15:09.493Z,1011.9
2015-12-22T04:16:08.683Z,1012
2015-12-22T04:17:09.405Z,1011.9
2015-12-22T04:18:09.345Z,1011.9
2015-12-22T04:19:09.269Z,1012
2015-12-22T04:20:09.211Z,1011.8
2015-12-22T04:21:09.166Z,1011.8
2015-12-22T04:22:09.372Z,1011.9
2015-12-22T04:23:09.063Z,1011.7
2015-12-22T04:24:09.003Z,1011.8
2015-12-22T04:25:09.095Z,1011.9
2015-12-22T04:26:09.058Z,1011.7
2015-12-22T04:27:09.011Z,1011.8
2015-12-22T04:28:14.119Z,1011.8
2015-12-22T04:29:08.955Z,1011.8
2015-12-22T04:30:08.946Z,1011.7
2015-12-22T04:31:09.246Z,1011.7
2015-12-22T04:32:08.577Z,1011.7
2015-12-22T04:33:08.549Z,1011.6
2015-12-22T04:34:08.441Z,1011.6
2015-12-22T04:35:08.382Z,1011.6
2015-12-22T04:36:08.337Z,1011.6
2015-12-22T04:37:08.306Z,1011.7
2015-12-22T04:38:08.090Z,1011.7
2015-12-22T04:39:08.390Z,1011.7
2015-12-22T04:40:08.110Z,1011.7
2015-12-22T04:41:08.082Z,1011.7
2015-12-22T04:42:08.007Z,1011.7
2015-12-22T04:43:07.948Z,1011.8
2015-12-22T04:44:08.137Z,1011.7
2015-12-22T04:45:08.437Z,1011.7
2015-12-22T04:46:07.799Z,1011.6
2015-12-22T04:47:07.740Z,1011.7
2015-12-22T04:48:07.679Z,1011.7
2015-12-22T04:49:07.620Z,1011.6
2015-12-22T04:50:07.592Z,1011.6
2015-12-22T04:51:07.829Z,1011.7
2015-12-22T04:52:07.457Z,1011.6
2015-12-22T04:53:07.115Z,1011.8
2015-12-22T04:54:07.462Z,1011.7
2015-12-22T04:55:07.293Z,1011.7
2015-12-22T04:56:07.248Z,1011.7
2015-12-22T04:57:07.252Z,1011.7
2015-12-22T04:58:07.129Z,1011.8
2015-12-22T04:59:07.084Z,1011.8
2015-12-22T05:00:07.229Z,1011.7
2015-12-22T05:01:06.966Z,1011.8
2015-12-22T05:02:06.921Z,1011.8
2015-12-22T05:03:07.111Z,1011.7
2015-12-22T05:04:06.834Z,1011.7
2015-12-22T05:05:06.759Z,1011.6
2015-12-22T05:06:06.698Z,1011.8
2015-12-22T05:07:06.654Z,1011.7
2015-12-22T05:08:06.595Z,1011.7
2015-12-22T05:09:06.535Z,1011.8
2015-12-22T05:10:06.476Z,1011.8
2015-12-22T05:11:06.431Z,1011.8
2015-12-22T05:12:06.371Z,1011.8
2015-12-22T05:13:06.326Z,1011.9
2015-12-22T05:14:06.299Z,1011.9
2015-12-22T05:15:05.707Z,1012
2015-12-22T05:16:06.179Z,1011.9
2015-12-22T05:17:06.337Z,1012
2015-12-22T05:18:06.059Z,1012
2015-12-22T05:19:06.000Z,1012
2015-12-22T05:20:05.956Z,1012
2015-12-22T05:21:05.896Z,1012.1
2015-12-22T05:22:05.849Z,1012.2
2015-12-22T05:23:05.789Z,1012.2
2015-12-22T05:24:05.744Z,1012.2
2015-12-22T05:25:05.686Z,1012.2
2015-12-22T05:26:05.484Z,1012.2
2015-12-22T05:27:05.581Z,1012.2
2015-12-22T05:28:05.552Z,1012.2
2015-12-22T05:29:05.712Z,1012.3
2015-12-22T05:30:05.417Z,1012.3
2015-12-22T05:31:05.577Z,1012.2
2015-12-22T05:32:05.330Z,1012.3
2015-12-22T05:33:05.270Z,1012.2
2015-12-22T05:34:05.210Z,1012.2
2015-12-22T05:35:05.150Z,1012.3
2015-12-22T05:36:05.121Z,1012.3
2015-12-22T05:37:05.062Z,1012.3
2015-12-22T05:38:05.003Z,1012.1
2015-12-22T05:39:04.942Z,1012.1
2015-12-22T05:40:04.914Z,1012
2015-12-22T05:41:04.854Z,1012.1
2015-12-22T05:42:04.794Z,1012.2
2015-12-22T05:43:04.735Z,1012.2
2015-12-22T05:44:04.675Z,1012.2
2015-12-22T05:45:03.865Z,1012.2
2015-12-22T05:46:04.571Z,1012.2
2015-12-22T05:47:04.527Z,1012.2
2015-12-22T05:48:04.467Z,1012.1
2015-12-22T05:49:04.407Z,1012.2
2015-12-22T05:50:03.598Z,1012.1
2015-12-22T05:51:04.319Z,1012.1
2015-12-22T05:52:04.260Z,1012.2
2015-12-22T05:53:04.184Z,1012.2
2015-12-22T05:54:04.343Z,1012.3
2015-12-22T05:55:04.080Z,1012.3
2015-12-22T05:56:04.021Z,1012.2
2015-12-22T05:57:03.961Z,1012.2
2015-12-22T05:58:03.933Z,1012.2
2015-12-22T05:59:03.872Z,1012.3
2015-12-22T06:00:03.813Z,1012.2
2015-12-22T06:01:03.753Z,1012.3
2015-12-22T06:02:03.709Z,1012.4
2015-12-22T06:03:03.649Z,1012.4
2015-12-22T06:04:03.605Z,1012.3
2015-12-22T06:05:03.558Z,1012.4
2015-12-22T06:06:03.483Z,1012.3
2015-12-22T06:07:03.423Z,1012.2
2015-12-22T06:08:03.379Z,1012.2
2015-12-22T06:09:03.335Z,1012.3
2015-12-22T06:10:03.291Z,1012.2
2015-12-22T06:11:03.215Z,1012.3
2015-12-22T06:12:03.171Z,1012.2
2015-12-22T06:13:03.111Z,1012.2
2015-12-22T06:14:03.068Z,1012.3
2015-12-22T06:15:03.007Z,1012.1
2015-12-22T06:16:02.948Z,1012.1
2015-12-22T06:17:02.888Z,1012.1
2015-12-22T06:18:02.844Z,1012
2015-12-22T06:19:02.800Z,1012
2015-12-22T06:20:02.740Z,1012
2015-12-22T06:21:02.680Z,1012.2
2015-12-22T06:22:02.855Z,1012.2
2015-12-22T06:23:02.576Z,1012.2
2015-12-22T06:24:02.563Z,1012.2
2015-12-22T06:25:02.691Z,1012.2
2015-12-22T06:26:02.615Z,1012.1
2015-12-22T06:27:02.571Z,1012.3
2015-12-22T06:28:02.309Z,1012.2
2015-12-22T06:29:02.266Z,1012.3
2015-12-22T06:30:02.190Z,1012.4
2015-12-22T06:31:02.146Z,1012.4
2015-12-22T06:32:02.086Z,1012.4
2015-12-22T06:33:02.041Z,1012.4
2015-12-22T06:34:02.013Z,1012.3
2015-12-22T06:35:01.922Z,1012.5
2015-12-22T06:36:01.878Z,1012.4
2015-12-22T06:37:01.818Z,1012.3
2015-12-22T06:38:01.962Z,1012.3
2015-12-22T06:39:01.745Z,1012.3
2015-12-22T06:40:01.670Z,1012.3
2015-12-22T06:41:01.610Z,1012.4
2015-12-22T06:42:01.551Z,1012.3
2015-12-22T06:43:01.506Z,1012.3
2015-12-22T06:44:01.475Z,1012.3
2015-12-22T06:45:01.384Z,1012.4
2015-12-22T06:46:01.324Z,1012.3
2015-12-22T06:47:01.281Z,1012.4
2015-12-22T06:48:01.252Z,1012.3
2015-12-22T06:49:00.426Z,1012.4
2015-12-22T06:50:01.351Z,1012.5
2015-12-22T06:51:01.057Z,1012.5
2015-12-22T06:52:01.013Z,1012.4
2015-12-22T06:53:00.968Z,1012.5
2015-12-22T06:54:00.893Z,1012.4
2015-12-22T06:55:00.849Z,1012.4
2015-12-22T06:56:00.805Z,1012.4
2015-12-22T06:57:00.745Z,1012.5
2015-12-22T06:58:00.701Z,1012.4
2015-12-22T06:59:00.876Z,1012.5
2015-12-22T07:00:00.581Z,1012.5
2015-12-22T07:01:00.537Z,1012.5
2015-12-22T07:02:00.478Z,1012.5
2015-12-22T07:03:00.417Z,1012.5
2015-12-22T07:04:00.577Z,1012.5
2015-12-22T07:05:00.314Z,1012.5
2015-12-22T07:06:00.286Z,1012.5
2015-12-22T07:07:00.226Z,1012.4
2015-12-22T07:08:00.370Z,1012.4
2015-12-22T07:09:00.106Z,1012.5
2015-12-22T07:10:00.062Z,1012.4
2015-12-22T07:11:00.018Z,1012.5
2015-12-22T07:11:59.959Z,1012.4
2015-12-22T07:12:59.899Z,1012.5
2015-12-22T07:13:59.839Z,1012.5
2015-12-22T07:14:59.795Z,1012.5
2015-12-22T07:15:59.751Z,1012.6
2015-12-22T07:16:59.909Z,1012.7
2015-12-22T07:17:59.632Z,1012.7
2015-12-22T07:18:59.587Z,1012.5
2015-12-22T07:19:59.528Z,1012.7
2015-12-22T07:20:59.483Z,1012.7
2015-12-22T07:21:59.423Z,1012.6
2015-12-22T07:22:59.364Z,1012.6
2015-12-22T07:23:59.319Z,1012.7
2015-12-22T07:24:59.260Z,1012.5
2015-12-22T07:25:59.216Z,1012.6
2015-12-22T07:26:59.156Z,1012.6
2015-12-22T07:27:59.094Z,1012.5
2015-12-22T07:28:59.050Z,1012.6
2015-12-22T07:29:59.037Z,1012.4
2015-12-22T07:30:58.961Z,1012.5
2015-12-22T07:31:58.885Z,1012.5
2015-12-22T07:32:58.842Z,1012.5
2015-12-22T07:33:58.783Z,1012.5
2015-12-22T07:34:58.738Z,1012.5
2015-12-22T07:35:58.678Z,1012.5
2015-12-22T07:36:58.619Z,1012.6
2015-12-22T07:37:58.589Z,1012.5
2015-12-22T07:38:58.531Z,1012.6
2015-12-22T07:39:58.486Z,1012.6
2015-12-22T07:40:58.411Z,1012.4
2015-12-22T07:41:58.367Z,1012.4
2015-12-22T07:42:58.307Z,1012.4
2015-12-22T07:43:58.263Z,1012.4
2015-12-22T07:44:58.203Z,1012.4
2015-12-22T07:45:58.144Z,1012.4
2015-12-22T07:46:58.099Z,1012.5
2015-12-22T07:47:58.039Z,1012.4
2015-12-22T07:48:58.010Z,1012.4
2015-12-22T07:49:57.951Z,1012.4
2015-12-22T07:50:57.892Z,1012.4
2015-12-22T07:51:57.832Z,1012.4
2015-12-22T07:52:57.818Z,1012.5
2015-12-22T07:53:57.728Z,1012.4
2015-12-22T07:54:57.668Z,1012.4
2015-12-22T07:55:57.624Z,1012.4
2015-12-22T07:56:57.564Z,1012.4
2015-12-22T07:57:57.520Z,1012.4
2015-12-22T07:58:57.461Z,1012.4
2015-12-22T07:59:57.400Z,1012.3
2015-12-22T08:00:57.357Z,1012.3
2015-12-22T08:01:57.344Z,1012.2
2015-12-22T08:02:57.253Z,1012.2
2015-12-22T08:03:57.193Z,1012.3
2015-12-22T08:04:57.133Z,1012.2
2015-12-22T08:05:57.324Z,1012.2
2015-12-22T08:06:57.042Z,1012.2
2015-12-22T08:07:56.998Z,1012.3
2015-12-22T08:08:56.938Z,1012.4
2015-12-22T08:09:56.878Z,1012.4
2015-12-22T08:10:56.819Z,1012.3
2015-12-22T08:11:56.774Z,1012.3
2015-12-22T08:12:56.730Z,1012.2
2015-12-22T08:13:56.671Z,1012.3
2015-12-22T08:14:56.611Z,1012.2
2015-12-22T08:15:56.566Z,1012.3
2015-12-22T08:16:56.507Z,1012.1
2015-12-22T08:17:56.463Z,1012.2
2015-12-22T08:18:56.403Z,1012
2015-12-22T08:19:56.343Z,1012.1
2015-12-22T08:20:56.316Z,1012
2015-12-22T08:21:56.255Z,1012
2015-12-22T08:22:56.210Z,1012
2015-12-22T08:23:56.136Z,1012
2015-12-22T08:24:56.091Z,1012.1
2015-12-22T08:25:56.235Z,1012
2015-12-22T08:26:56.004Z,1012
2015-12-22T08:27:55.929Z,1012.1
2015-12-22T08:28:56.102Z,1011.9
2015-12-22T08:29:55.824Z,1012
2015-12-22T08:30:55.780Z,1011.9
2015-12-22T08:31:55.735Z,1011.9
2015-12-22T08:32:55.677Z,1012
2015-12-22T08:33:55.616Z,1012
2015-12-22T08:34:55.573Z,1012.1
2015-12-22T08:35:55.512Z,1012.2
2015-12-22T08:36:55.468Z,1012.2
2015-12-22T08:37:55.409Z,1012.1
2015-12-22T08:38:55.349Z,1012.1
2015-12-22T08:39:55.523Z,1012.1
2015-12-22T08:40:55.260Z,1012
2015-12-22T08:41:55.217Z,1012.1
2015-12-22T08:42:55.157Z,1012.2
2015-12-22T08:43:55.098Z,1012.1
2015-12-22T08:44:55.037Z,1012.1
2015-12-22T08:45:55.040Z,1012.1
2015-12-22T08:46:54.946Z,1012.2
2015-12-22T08:47:54.887Z,1012.1
2015-12-22T08:48:54.843Z,1012.2
2015-12-22T08:49:54.782Z,1012.2
2015-12-22T08:50:54.738Z,1012
2015-12-22T08:51:54.694Z,1012
2015-12-22T08:52:54.619Z,1012.1
2015-12-22T08:53:54.575Z,1012
2015-12-22T08:54:54.515Z,1012
2015-12-22T08:55:54.471Z,1012
2015-12-22T08:56:54.426Z,1012.1
2015-12-22T08:57:54.351Z,1012
2015-12-22T08:58:54.542Z,1012.1
2015-12-22T08:59:54.248Z,1012
2015-12-22T09:00:54.219Z,1012
2015-12-22T09:01:54.159Z,1011.8
2015-12-22T09:02:54.084Z,1012
2015-12-22T09:03:54.040Z,1011.8
2015-12-22T09:04:54.012Z,1011.5
2015-12-22T09:05:53.951Z,1011.4
2015-12-22T09:06:53.892Z,1011.9
2015-12-22T09:07:53.848Z,1012
2015-12-22T09:08:53.789Z,1012
2015-12-22T09:09:53.728Z,1011.6
2015-12-22T09:10:53.715Z,1011.2
2015-12-22T09:11:53.639Z,1011.2
2015-12-22T09:12:53.611Z,1011.3
2015-12-22T09:13:53.536Z,1011.2
2015-12-22T09:14:53.477Z,1011.2
2015-12-22T09:15:53.433Z,1011.9
2015-12-22T09:16:53.389Z,1011.9
2015-12-22T09:17:53.344Z,1011.6
2015-12-22T09:18:53.284Z,1011.6
2015-12-22T09:19:53.240Z,1011.6
2015-12-22T09:20:53.212Z,1011.3
2015-12-22T09:21:53.137Z,1011.8
2015-12-22T09:22:53.108Z,1011.7
2015-12-22T09:23:53.266Z,1011.7
2015-12-22T09:24:52.969Z,1011.7
2015-12-22T09:25:52.925Z,1011.7
2015-12-22T09:26:52.881Z,1011.8
2015-12-22T09:27:52.822Z,1011.8
2015-12-22T09:28:53.012Z,1011.8
2015-12-22T09:29:52.719Z,1011.7
2015-12-22T09:30:52.658Z,1011.7
2015-12-22T09:31:52.630Z,1011.7
2015-12-22T09:32:52.570Z,1011.6
2015-12-22T09:33:52.511Z,1011.8
2015-12-22T09:34:52.451Z,1011.8
2015-12-22T09:35:52.422Z,1011.9
2015-12-22T09:36:52.363Z,1011.7
2015-12-22T09:37:52.303Z,1011.6
2015-12-22T09:38:52.259Z,1011.8
2015-12-22T09:39:52.183Z,1011.8
2015-12-22T09:40:52.155Z,1011.8
2015-12-22T09:41:52.111Z,1011.8
2015-12-22T09:42:51.895Z,1011.8
2015-12-22T09:43:52.241Z,1011.9
2015-12-22T09:44:51.947Z,1011.8
2015-12-22T09:45:51.888Z,1011.9
2015-12-22T09:46:51.844Z,1011.9
2015-12-22T09:47:52.003Z,1011.9
2015-12-22T09:48:51.942Z,1011.8
2015-12-22T09:49:51.680Z,1011.8
2015-12-22T09:50:51.636Z,1011.8
2015-12-22T09:51:51.592Z,1011.7
2015-12-22T09:52:51.516Z,1011.6
2015-12-22T09:53:51.488Z,1011.7
2015-12-22T09:54:51.413Z,1011.7
2015-12-22T09:55:51.368Z,1011.7
2015-12-22T09:56:51.324Z,1011.8
2015-12-22T09:57:51.249Z,1011.7
2015-12-22T09:58:51.205Z,1011.7
2015-12-22T09:59:51.394Z,1011.6
2015-12-22T10:00:51.132Z,1011.6
2015-12-22T10:01:51.072Z,1011.7
2015-12-22T10:02:50.997Z,1011.7
2015-12-22T10:03:50.937Z,1011.7
2015-12-22T10:04:50.140Z,1011.5
2015-12-22T10:05:50.846Z,1011.7
2015-12-22T10:06:50.786Z,1011.7
2015-12-22T10:07:50.727Z,1011.7
2015-12-22T10:08:50.682Z,1011.7
2015-12-22T10:09:50.638Z,1011.8
2015-12-22T10:10:50.594Z,1011.6
2015-12-22T10:11:50.518Z,1011.7
2015-12-22T10:12:50.474Z,1011.6
2015-12-22T10:13:50.649Z,1011.6
2015-12-22T10:14:50.354Z,1011.6
2015-12-22T10:15:50.326Z,1011.6
2015-12-22T10:16:50.282Z,1011.5
2015-12-22T10:17:50.223Z,1011.4
2015-12-22T10:18:50.179Z,1011.6
2015-12-22T10:19:50.103Z,1011.5
2015-12-22T10:20:50.059Z,1011.6
2015-12-22T10:21:49.999Z,1011.6
2015-12-22T10:22:49.954Z,1011.6
2015-12-22T10:23:49.926Z,1011.7
2015-12-22T10:24:49.851Z,1011.5
2015-12-22T10:25:49.790Z,1011.5
2015-12-22T10:26:49.725Z,1011.6
2015-12-22T10:27:49.689Z,1011.7
2015-12-22T10:28:49.809Z,1011.5
2015-12-22T10:29:49.757Z,1011.6
2015-12-22T10:30:49.502Z,1011.6
2015-12-22T10:31:49.454Z,1011.4
2015-12-22T10:32:49.375Z,1011.4
2015-12-22T10:33:49.328Z,1011.5
2015-12-22T10:34:49.281Z,1011.5
2015-12-22T10:35:49.219Z,1011.4
2015-12-22T10:36:49.157Z,1011.4
2015-12-22T10:37:49.113Z,1011.4
2015-12-22T10:38:49.052Z,1011.4
2015-12-22T10:39:48.992Z,1011.3
2015-12-22T10:40:48.947Z,1011.4
2015-12-22T10:41:48.887Z,1011.3
2015-12-22T10:42:48.842Z,1011.4
2015-12-22T10:43:48.797Z,1011.3
2015-12-22T10:44:48.738Z,1011.3
2015-12-22T10:45:48.678Z,1011.4
2015-12-22T10:46:48.633Z,1011.4
2015-12-22T10:47:48.574Z,1011.5
2015-12-22T10:48:48.530Z,1011.4
2015-12-22T10:49:48.470Z,1011.3
2015-12-22T10:50:48.425Z,1011.4
2015-12-22T10:51:48.379Z,1011.3
2015-12-22T10:52:48.506Z,1011.3
2015-12-22T10:53:48.259Z,1011.3
2015-12-22T10:54:48.216Z,1011.3
2015-12-22T10:55:48.171Z,1011.2
2015-12-22T10:56:48.096Z,1011.1
2015-12-22T10:57:48.036Z,1011.2
2015-12-22T10:58:48.007Z,1011.2
2015-12-22T10:59:47.963Z,1011.1
2015-12-22T11:00:47.871Z,1011.1
2015-12-22T11:01:48.063Z,1011.1
2015-12-22T11:02:48.019Z,1011.1
2015-12-22T11:03:47.741Z,1011.2
2015-12-22T11:04:47.681Z,1011.1
2015-12-22T11:05:47.621Z,1011.1
2015-12-22T11:06:47.567Z,1011.1
2015-12-22T11:07:47.507Z,1011.1
2015-12-22T11:08:47.463Z,1011
2015-12-22T11:09:47.403Z,1011
2015-12-22T11:10:46.578Z,1011.1
2015-12-22T11:11:47.300Z,1010.9
2015-12-22T11:12:47.255Z,1010.9
2015-12-22T11:13:47.180Z,1011
2015-12-22T11:14:47.136Z,1011
2015-12-22T11:15:47.075Z,1010.9
2015-12-22T11:16:47.032Z,1010.9
2015-12-22T11:17:46.972Z,1010.9
2015-12-22T11:18:46.944Z,1010.9
2015-12-22T11:19:46.883Z,1011
2015-12-22T11:20:46.808Z,1010.9
2015-12-22T11:21:46.764Z,1010.9
2015-12-22T11:22:46.705Z,1011
2015-12-22T11:23:46.660Z,1010.9
2015-12-22T11:24:46.600Z,1010.8
2015-12-22T11:25:46.557Z,1010.2
2015-12-22T11:26:46.480Z,1010.5
2015-12-22T11:27:46.656Z,1010.3
2015-12-22T11:28:46.377Z,1010.6
2015-12-22T11:29:46.333Z,1010.8
2015-12-22T11:30:46.273Z,1010.7
2015-12-22T11:31:46.230Z,1010.8
2015-12-22T11:32:46.185Z,1010.6
2015-12-22T11:33:46.125Z,1010.8
2015-12-22T11:34:46.066Z,1010.8
2015-12-22T11:35:45.256Z,1010.7
2015-12-22T11:36:45.963Z,1010.8
2015-12-22T11:37:45.918Z,1010.8
2015-12-22T11:38:45.858Z,1010.7
2015-12-22T11:39:45.798Z,1010.9
2015-12-22T11:40:45.754Z,1010.8
2015-12-22T11:41:45.710Z,1010.9
2015-12-22T11:42:45.647Z,1010.8
2015-12-22T11:43:45.588Z,1010.9
2015-12-22T11:44:45.746Z,1010.9
2015-12-22T11:45:45.499Z,1011
2015-12-22T11:46:45.440Z,1011
2015-12-22T11:47:45.380Z,1010.9
2015-12-22T11:48:45.321Z,1011.1
2015-12-22T11:49:45.276Z,1011.1
2015-12-22T11:50:45.216Z,1011.1
2015-12-22T11:51:45.157Z,1011.1
2015-12-22T11:52:45.129Z,1011
2015-12-22T11:53:45.068Z,1011
2015-12-22T11:54:45.009Z,1011
2015-12-22T11:55:44.948Z,1011
2015-12-22T11:56:44.904Z,1011.1
2015-12-22T11:57:44.876Z,1011.1
2015-12-22T11:58:44.785Z,1011
2015-12-22T11:59:44.741Z,1010.9
2015-12-22T12:00:44.931Z,1010.8
2015-12-22T12:01:44.653Z,1010.8
2015-12-22T12:02:44.592Z,1010.6
2015-12-22T12:03:44.533Z,1010.7
2015-12-22T12:04:44.473Z,1010.5
2015-12-22T12:05:44.428Z,1010.6
2015-12-22T12:06:44.369Z,1010.7
2015-12-22T12:07:44.325Z,1010.6
2015-12-22T12:08:44.265Z,1010.7
2015-12-22T12:09:44.221Z,1010.7
2015-12-22T12:10:44.177Z,1010.7
2015-12-22T12:11:44.101Z,1010.6
2015-12-22T12:12:44.073Z,1010.8
2015-12-22T12:13:44.014Z,1010.7
2015-12-22T12:14:43.970Z,1010.6
2015-12-22T12:15:44.097Z,1010.7
2015-12-22T12:16:44.037Z,1010.7
2015-12-22T12:17:43.789Z,1010.5
2015-12-22T12:18:43.746Z,1010.6
2015-12-22T12:19:43.702Z,1010.7
2015-12-22T12:20:43.642Z,1010.7
2015-12-22T12:21:43.583Z,1010.6
2015-12-22T12:22:43.554Z,1010.6
2015-12-22T12:23:43.494Z,1010.6
2015-12-22T12:24:43.622Z,1010.6
2015-12-22T12:25:43.375Z,1010.5
2015-12-22T12:26:43.331Z,1010.6
2015-12-22T12:27:43.287Z,1010.6
2015-12-22T12:28:43.211Z,1010.5
2015-12-22T12:29:42.417Z,1010.7
2015-12-22T12:30:43.122Z,1010.6
2015-12-22T12:31:43.063Z,1010.6